Glens Falls, NY

6:54 PM EDT on March 26, 2017 (GMT -0400)
Bennett Memorial | | Change Station
Active Advisory: Freezing Rain Advisory

Elev 328 ft 43.34 °N, 73.61 °W | Updated 1 hour ago

Overcast
Overcast
36 °F
Feels Like 36 °F
N
0
Wind Variable Wind from North

Today
High -- | Low -- °F
--% Chance of Precip.
Yesterday
High -- | Low -- °F
Precip. -- in
Pressure 30.41 in
Visibility 6.0 miles
Clouds Overcast 3600 ft
Dew Point 25 °F
Humidity 64%
Rainfall 0.01 in
Snow Depth Not available.
6:46 AM 7:14 PM
Waning Crescent, 2% visible
METAR KGFL 262153Z AUTO 00000KT 6SM -RA OVC036 02/M04 A3038 RMK AO2 RAB52 SLP297 P0001 T00221039
Pressure 30.41 in
Visibility 6.0 miles
Clouds Overcast 3600 ft
Dew Point 25 °F
Humidity 64%
Rainfall 0.01 in
Snow Depth Not available.
6:46 AM 7:14 PM
Waning Crescent, 2% visible
METAR KGFL 262153Z AUTO 00000KT 6SM -RA OVC036 02/M04 A3038 RMK AO2 RAB52 SLP297 P0001 T00221039

Get Your Daily Forecast Email!

Thanks for signing up!

Be on the lookout for a verification email in your inbox.

You'll start receiving severe weather alerts in your inbox..

×

10-Day Weather Forecast

Almanac

Astronomy

Mar. 26, 2017 Rise Set
Actual Time
Civil Twilight
Nautical Twilight
Astronomical Twilight
Moon
Length of Visible Light
Length of Day
Tomorrow will be .
, % of the Moon is Illuminated

Today's Extremes

State Highs State Lows

Community

WunderPhotos

Upload Photos

1,962,540 photos uploaded!

WunderBlog® & News

Nearby

Air Quality

  Air Quality AQ Index Pollutant
Not available.

Snow Depth

Station Depth Elevation

Earthquake Activity

City Distance Mag. Time & Date
Minimum magnitude displayed is 2.5.

Earthquake Activity

City Distance Mag. Time & Date
Minimum magnitude displayed is 2.5.

Coastal Water Temperatures

Place Temperature

Stations

Nearby Weather Stations

Station Location Temp. Windchill Dew Point Humidity Wind Precip. Elev Updated Type
                   

Watches & Warnings

Freezing Rain Advisory
Issued: 4:50 PM EDT Mar. 26, 2017 – National Weather Service

... Freezing Rain Advisory remains in effect until 2 am EDT
Monday...

* locations... Hamilton, Warren, northern Saratoga and northern
Fulton counties

* hazard types... freezing rain.

* Ice accumulations... trace to a tenth of an inch of ice with
isolated higher amounts.

* Timing... freezing rain will occur this evening and transition
to plain rain in the early morning hours.

* Impacts... hazardous travel due to icy roads. Isolated power
outages are possible.

* Temperatures... in the upper 20s to lower 30s.

Precautionary/preparedness actions...

A Freezing Rain Advisory means that periods of freezing rain or
freezing drizzle will cause travel difficulties. Be prepared for
slippery roads. Slow down and use caution while driving.